createdAt,value
2023-03-31T00:00:36.913Z,93.35
2023-03-31T00:02:53.929Z,94.62
2023-03-31T00:05:11.327Z,94.53
2023-03-31T00:07:28.645Z,95.48
2023-03-31T00:09:45.870Z,95.26
2023-03-31T00:12:02.901Z,94.98
2023-03-31T00:14:20.051Z,94.61
2023-03-31T00:16:37.483Z,95.06
2023-03-31T00:18:54.509Z,94.34
2023-03-31T00:21:11.556Z,95.16
2023-03-31T00:23:29.817Z,94.56
2023-03-31T00:25:46.819Z,95.22
2023-03-31T00:28:03.748Z,94.81
2023-03-31T00:30:20.702Z,94.87
2023-03-31T00:32:37.819Z,94.97
2023-03-31T00:34:54.844Z,94.56
2023-03-31T00:37:12.193Z,94.70
2023-03-31T00:39:29.163Z,94.92
2023-03-31T00:41:46.268Z,95.17
2023-03-31T00:44:03.317Z,94.91
2023-03-31T00:46:20.390Z,93.22
2023-03-31T00:48:37.503Z,93.54
2023-03-31T00:50:54.619Z,94.03
2023-03-31T00:53:11.653Z,93.73
2023-03-31T00:55:28.565Z,93.58
2023-03-31T00:57:45.897Z,93.13
2023-03-31T01:00:03.061Z,93.74
2023-03-31T01:02:20.541Z,94.04
2023-03-31T01:04:37.618Z,94.42
2023-03-31T01:06:54.556Z,94.78
2023-03-31T01:09:11.884Z,94.55
2023-03-31T01:11:29.157Z,94.46
2023-03-31T01:13:48.719Z,95.25
2023-03-31T01:16:05.846Z,94.91
2023-03-31T01:18:23.480Z,94.94
2023-03-31T01:20:40.742Z,95.00
2023-03-31T01:22:57.704Z,95.37
2023-03-31T01:25:15.006Z,95.10
2023-03-31T01:27:32.133Z,96.27
2023-03-31T01:29:49.250Z,94.59
2023-03-31T01:32:07.556Z,95.28
2023-03-31T01:34:24.897Z,94.88
2023-03-31T01:36:42.300Z,94.38
2023-03-31T01:39:00.604Z,92.94
2023-03-31T01:41:18.657Z,92.09
2023-03-31T01:43:35.709Z,91.45
2023-03-31T01:45:53.065Z,91.88
2023-03-31T01:48:11.140Z,91.59
2023-03-31T01:50:28.165Z,91.69
2023-03-31T01:52:45.173Z,92.33
2023-03-31T01:55:03.274Z,92.70
2023-03-31T01:57:21.291Z,93.21
2023-03-31T01:59:38.213Z,90.31
2023-03-31T02:01:55.544Z,89.66
2023-03-31T02:04:12.727Z,89.84
2023-03-31T02:06:30.099Z,90.00
2023-03-31T02:08:47.173Z,89.65
2023-03-31T02:11:04.400Z,90.38
2023-03-31T02:13:21.346Z,90.56
2023-03-31T02:15:38.376Z,90.50
2023-03-31T02:17:55.700Z,91.22
2023-03-31T02:20:12.848Z,90.90
2023-03-31T02:22:31.139Z,91.13
2023-03-31T02:24:49.437Z,91.54
2023-03-31T02:27:06.703Z,91.20
2023-03-31T02:29:23.904Z,90.79
2023-03-31T02:31:41.151Z,91.21
2023-03-31T02:33:58.187Z,90.52
2023-03-31T02:36:15.466Z,91.18
2023-03-31T02:38:32.512Z,89.53
2023-03-31T02:40:50.332Z,89.93
2023-03-31T02:43:07.387Z,90.06
2023-03-31T02:45:24.399Z,90.25
2023-03-31T02:47:41.497Z,90.16
2023-03-31T02:49:59.868Z,90.13
2023-03-31T02:52:16.950Z,89.89
2023-03-31T02:54:33.981Z,89.21
2023-03-31T02:56:51.263Z,88.87
2023-03-31T02:59:08.698Z,90.20
2023-03-31T03:01:25.784Z,90.38
2023-03-31T03:03:44.058Z,90.68
2023-03-31T03:06:01.974Z,90.72
2023-03-31T03:08:20.983Z,90.76
2023-03-31T03:10:37.958Z,91.03
2023-03-31T03:12:55.007Z,90.57
2023-03-31T03:15:12.204Z,92.21
2023-03-31T03:17:29.600Z,92.50
2023-03-31T03:19:47.642Z,92.57
2023-03-31T03:22:06.797Z,91.14
2023-03-31T03:24:25.090Z,91.42
2023-03-31T03:26:42.157Z,91.98
2023-03-31T03:28:59.074Z,92.33
2023-03-31T03:31:16.045Z,91.85
2023-03-31T03:33:33.143Z,92.10
2023-03-31T03:35:50.456Z,92.14
2023-03-31T03:38:07.494Z,91.79
2023-03-31T03:40:24.432Z,92.53
2023-03-31T03:42:41.352Z,93.08
2023-03-31T03:44:58.701Z,93.83
2023-03-31T03:47:15.742Z,93.65
2023-03-31T03:49:32.687Z,93.71
2023-03-31T03:51:49.727Z,93.01
2023-03-31T03:54:07.026Z,93.34
2023-03-31T03:56:23.991Z,92.58
2023-03-31T03:58:41.038Z,93.06
2023-03-31T04:00:58.422Z,93.06
2023-03-31T04:03:15.474Z,94.51
2023-03-31T04:05:32.530Z,95.04
2023-03-31T04:07:49.538Z,94.97
2023-03-31T04:10:06.462Z,94.64
2023-03-31T04:12:23.419Z,96.43
2023-03-31T04:14:41.378Z,94.86
2023-03-31T04:16:58.294Z,94.70
2023-03-31T04:19:15.278Z,94.47
2023-03-31T04:21:32.533Z,95.29
2023-03-31T04:23:49.566Z,94.04
2023-03-31T04:26:07.093Z,93.70
2023-03-31T04:28:24.504Z,94.67
2023-03-31T04:30:41.578Z,94.78
2023-03-31T04:32:58.704Z,94.53
2023-03-31T04:35:15.765Z,94.35
2023-03-31T04:37:32.751Z,95.07
2023-03-31T04:39:49.705Z,94.50
2023-03-31T04:42:07.953Z,95.09
2023-03-31T04:44:24.954Z,95.44
2023-03-31T04:46:42.950Z,95.38
2023-03-31T04:48:59.960Z,95.76
2023-03-31T04:51:16.936Z,95.89
2023-03-31T04:53:34.250Z,96.33
2023-03-31T04:55:51.297Z,95.99
2023-03-31T04:58:08.536Z,97.10
2023-03-31T05:00:26.566Z,96.08
2023-03-31T05:02:43.663Z,95.91
2023-03-31T05:05:00.717Z,95.66
2023-03-31T05:07:18.029Z,95.61
2023-03-31T05:09:35.997Z,95.95
2023-03-31T05:11:53.022Z,97.56
2023-03-31T05:14:10.080Z,96.65
2023-03-31T05:16:27.411Z,96.00
2023-03-31T05:18:44.328Z,96.12
2023-03-31T05:21:01.343Z,95.79
2023-03-31T05:23:18.279Z,97.03
2023-03-31T05:25:36.308Z,96.72
2023-03-31T05:27:53.398Z,96.68
2023-03-31T05:30:11.680Z,95.88
2023-03-31T05:32:28.741Z,96.16
2023-03-31T05:34:47.081Z,96.75
2023-03-31T05:37:04.103Z,96.63
2023-03-31T05:39:21.114Z,97.11
2023-03-31T05:41:39.351Z,97.06
2023-03-31T05:43:56.418Z,96.36
2023-03-31T05:46:14.657Z,95.39
2023-03-31T05:48:31.583Z,96.72
2023-03-31T05:50:48.637Z,95.72
2023-03-31T05:53:05.580Z,96.12
2023-03-31T05:55:24.055Z,96.54
2023-03-31T05:57:41.241Z,95.98
2023-03-31T05:59:58.243Z,95.93
2023-03-31T06:02:15.519Z,95.90
2023-03-31T06:04:32.433Z,97.16
2023-03-31T06:06:49.719Z,95.92
2023-03-31T06:09:06.808Z,96.84
2023-03-31T06:11:24.138Z,96.56
2023-03-31T06:13:41.131Z,95.33
2023-03-31T06:15:58.110Z,94.72
2023-03-31T06:18:15.429Z,96.09
2023-03-31T06:20:32.817Z,95.46
2023-03-31T06:22:49.717Z,95.67
2023-03-31T06:25:06.718Z,94.96
2023-03-31T06:27:23.744Z,95.86
2023-03-31T06:29:40.782Z,95.66
2023-03-31T06:31:58.057Z,95.14
2023-03-31T06:34:15.332Z,95.86
2023-03-31T06:36:32.651Z,96.21
2023-03-31T06:38:49.979Z,96.62
2023-03-31T06:41:07.426Z,96.48
2023-03-31T06:43:24.701Z,96.39
2023-03-31T06:45:41.751Z,95.71
2023-03-31T06:47:59.117Z,97.24
2023-03-31T06:50:16.223Z,96.80
2023-03-31T06:52:33.266Z,97.08
2023-03-31T06:54:51.255Z,96.40
2023-03-31T06:57:08.752Z,97.09
2023-03-31T06:59:26.352Z,96.63
2023-03-31T07:01:43.679Z,96.98
2023-03-31T07:04:00.749Z,96.48
2023-03-31T07:06:18.030Z,96.41
2023-03-31T07:08:35.006Z,97.65
2023-03-31T07:10:52.010Z,97.75
2023-03-31T07:13:09.038Z,97.26
2023-03-31T07:15:26.076Z,97.99
2023-03-31T07:17:43.475Z,96.98
2023-03-31T07:20:00.893Z,96.94
2023-03-31T07:22:18.192Z,96.03
2023-03-31T07:24:35.217Z,96.35
2023-03-31T07:26:52.233Z,96.93
2023-03-31T07:29:09.639Z,97.31
2023-03-31T07:31:26.694Z,96.96
2023-03-31T07:33:43.809Z,96.40
2023-03-31T07:36:10.879Z,96.31
2023-03-31T07:38:29.382Z,95.85
2023-03-31T07:40:53.065Z,95.90
2023-03-31T07:43:15.989Z,96.06
2023-03-31T07:45:32.973Z,95.48
2023-03-31T07:47:49.967Z,95.05
2023-03-31T07:50:06.957Z,94.19
2023-03-31T07:52:24.278Z,93.50
2023-03-31T07:54:41.281Z,93.44
2023-03-31T07:56:58.537Z,93.72
2023-03-31T07:59:16.485Z,92.51
2023-03-31T08:01:33.754Z,90.98
2023-03-31T08:03:51.048Z,89.93
2023-03-31T08:06:08.180Z,90.89
2023-03-31T08:08:25.404Z,90.29
2023-03-31T08:10:42.527Z,89.55
2023-03-31T08:12:59.594Z,89.21
2023-03-31T08:15:16.661Z,88.58
2023-03-31T08:17:33.697Z,89.47
2023-03-31T08:19:51.755Z,89.07
2023-03-31T08:22:09.789Z,89.15
2023-03-31T08:24:27.661Z,89.51
2023-03-31T08:26:44.721Z,90.23
2023-03-31T08:29:01.822Z,90.30
2023-03-31T08:31:18.994Z,90.35
2023-03-31T08:33:36.077Z,90.04
2023-03-31T08:35:53.398Z,88.73
2023-03-31T08:38:10.401Z,86.88
2023-03-31T08:40:27.671Z,84.67
2023-03-31T08:42:44.740Z,85.29
2023-03-31T08:45:01.779Z,82.20
2023-03-31T08:47:18.998Z,82.47
2023-03-31T08:49:36.382Z,79.97
2023-03-31T08:51:53.482Z,80.84
2023-03-31T08:54:11.528Z,80.86
2023-03-31T08:56:30.421Z,81.16
2023-03-31T08:58:47.481Z,81.10
2023-03-31T09:01:04.924Z,80.22
2023-03-31T09:03:22.312Z,79.19
2023-03-31T09:05:49.037Z,81.09
2023-03-31T09:08:14.430Z,80.37
2023-03-31T09:10:31.491Z,82.20
2023-03-31T09:12:48.609Z,80.02
2023-03-31T09:15:05.855Z,78.58
2023-03-31T09:17:22.781Z,79.33
2023-03-31T09:19:40.088Z,81.33
2023-03-31T09:21:57.030Z,81.28
2023-03-31T09:24:14.207Z,80.98
2023-03-31T09:26:32.270Z,82.01
2023-03-31T09:28:49.620Z,76.65
2023-03-31T09:31:06.666Z,78.48
2023-03-31T09:33:23.791Z,78.13
2023-03-31T09:35:40.793Z,80.01
2023-03-31T09:37:57.855Z,81.86
2023-03-31T09:40:14.906Z,80.98
2023-03-31T09:42:32.271Z,82.10
2023-03-31T09:44:49.518Z,83.72
2023-03-31T09:47:08.945Z,85.05
2023-03-31T09:49:28.090Z,85.97
2023-03-31T09:51:45.071Z,86.83
2023-03-31T09:54:02.132Z,84.85
2023-03-31T09:56:19.172Z,86.49
2023-03-31T09:58:36.034Z,85.38
2023-03-31T10:00:53.330Z,85.51
2023-03-31T10:03:11.299Z,85.00
2023-03-31T10:05:28.210Z,85.79
2023-03-31T10:07:45.449Z,85.97
2023-03-31T10:10:02.465Z,84.78
2023-03-31T10:12:19.524Z,82.43
2023-03-31T10:14:36.790Z,83.40
2023-03-31T10:16:53.753Z,83.01
2023-03-31T10:19:10.810Z,84.10
2023-03-31T10:21:28.089Z,82.55
2023-03-31T10:23:45.021Z,82.96
2023-03-31T10:26:02.008Z,80.63
2023-03-31T10:28:18.957Z,80.07
2023-03-31T10:30:36.007Z,79.83
2023-03-31T10:32:54.716Z,76.81
2023-03-31T10:35:11.919Z,73.76
2023-03-31T10:37:29.202Z,75.42
2023-03-31T10:39:46.493Z,77.69
2023-03-31T10:42:03.527Z,76.45
2023-03-31T10:44:20.560Z,76.94
2023-03-31T10:46:37.679Z,77.06
2023-03-31T10:48:54.727Z,76.22
2023-03-31T10:51:14.809Z,76.31
2023-03-31T10:53:31.980Z,77.42
2023-03-31T10:55:50.004Z,76.50
2023-03-31T10:58:06.933Z,76.32
2023-03-31T11:00:24.158Z,76.75
2023-03-31T11:02:41.233Z,73.17
2023-03-31T11:04:59.654Z,73.21
2023-03-31T11:07:16.719Z,71.17
2023-03-31T11:09:33.689Z,70.83
2023-03-31T11:11:51.682Z,70.92
2023-03-31T11:14:09.018Z,69.30
2023-03-31T11:16:26.162Z,69.09
2023-03-31T11:18:43.346Z,68.95
2023-03-31T11:21:00.241Z,67.28
2023-03-31T11:23:17.297Z,65.42
2023-03-31T11:25:34.491Z,64.95
2023-03-31T11:27:51.426Z,65.84
2023-03-31T11:30:08.601Z,66.89
2023-03-31T11:32:25.554Z,66.01
2023-03-31T11:34:42.512Z,66.09
2023-03-31T11:36:59.514Z,67.77
2023-03-31T11:39:16.428Z,67.88
2023-03-31T11:41:33.759Z,67.87
2023-03-31T11:43:51.970Z,68.77
2023-03-31T11:46:09.270Z,67.69
2023-03-31T11:48:26.381Z,67.46
2023-03-31T11:50:43.746Z,67.73
2023-03-31T11:53:02.764Z,66.65
2023-03-31T11:55:19.759Z,66.87
2023-03-31T11:57:37.931Z,66.96
2023-03-31T11:59:54.857Z,69.17
2023-03-31T12:02:11.877Z,70.15
2023-03-31T12:04:28.949Z,71.43
2023-03-31T12:06:46.077Z,71.40
2023-03-31T12:09:03.100Z,72.77
2023-03-31T12:11:20.396Z,72.30
2023-03-31T12:13:37.460Z,74.81
2023-03-31T12:15:54.796Z,73.78
2023-03-31T12:18:11.897Z,71.37
2023-03-31T12:20:28.799Z,73.09
2023-03-31T12:22:45.682Z,73.60
2023-03-31T12:25:02.686Z,71.40
2023-03-31T12:27:19.989Z,71.48
2023-03-31T12:29:37.017Z,69.79
2023-03-31T12:31:55.065Z,67.89
2023-03-31T12:34:12.162Z,64.25
2023-03-31T12:36:29.254Z,66.60
2023-03-31T12:38:46.218Z,67.21
2023-03-31T12:41:03.230Z,68.04
2023-03-31T12:43:20.334Z,66.53
2023-03-31T12:45:37.672Z,67.88
2023-03-31T12:47:54.955Z,67.16
2023-03-31T12:50:12.268Z,65.67
2023-03-31T12:52:29.179Z,65.24
2023-03-31T12:54:46.238Z,63.93
2023-03-31T12:57:04.200Z,64.67
2023-03-31T12:59:21.459Z,66.28
2023-03-31T13:01:38.490Z,64.71
2023-03-31T13:03:55.892Z,64.06
2023-03-31T13:06:14.057Z,60.95
2023-03-31T13:08:31.287Z,64.76
2023-03-31T13:10:48.554Z,63.30
2023-03-31T13:13:05.630Z,64.62
2023-03-31T13:15:22.876Z,65.42
2023-03-31T13:17:39.986Z,66.43
2023-03-31T13:19:56.927Z,65.14
2023-03-31T13:22:14.884Z,65.02
2023-03-31T13:24:31.938Z,68.58
2023-03-31T13:26:49.191Z,68.37
2023-03-31T13:29:06.190Z,66.84
2023-03-31T13:31:23.136Z,66.93
2023-03-31T13:33:40.396Z,67.76
2023-03-31T13:35:57.339Z,69.54
2023-03-31T13:38:14.253Z,68.55
2023-03-31T13:40:31.203Z,67.24
2023-03-31T13:42:48.502Z,68.16
2023-03-31T13:45:06.536Z,69.58
2023-03-31T13:47:23.881Z,68.88
2023-03-31T13:49:40.819Z,68.95
2023-03-31T13:51:57.846Z,68.28
2023-03-31T13:54:14.842Z,68.74
2023-03-31T13:56:31.897Z,68.99
2023-03-31T13:58:48.870Z,71.12
2023-03-31T14:01:06.207Z,71.25
2023-03-31T14:03:23.230Z,72.71
2023-03-31T14:05:40.176Z,72.69
2023-03-31T14:07:57.998Z,74.54
2023-03-31T14:10:14.887Z,76.04
2023-03-31T14:12:31.916Z,75.04
2023-03-31T14:14:49.946Z,74.22
2023-03-31T14:17:07.068Z,77.13
2023-03-31T14:19:24.043Z,74.99
2023-03-31T14:21:41.090Z,74.32
2023-03-31T14:23:58.425Z,75.81
2023-03-31T14:26:15.484Z,74.34
2023-03-31T14:28:32.589Z,73.59
2023-03-31T14:30:49.993Z,72.99
2023-03-31T14:33:07.219Z,73.29
2023-03-31T14:35:24.249Z,72.53
2023-03-31T14:37:41.265Z,70.07
2023-03-31T14:39:58.550Z,69.63
2023-03-31T14:42:15.415Z,70.51
2023-03-31T14:44:32.697Z,69.98
2023-03-31T14:46:49.752Z,67.68
2023-03-31T14:49:07.315Z,69.28
2023-03-31T14:51:24.299Z,70.79
2023-03-31T14:53:41.202Z,71.33
2023-03-31T14:55:59.283Z,69.49
2023-03-31T14:58:16.449Z,70.32
2023-03-31T15:00:33.474Z,70.03
2023-03-31T15:02:50.764Z,69.26
2023-03-31T15:05:07.879Z,70.05
2023-03-31T15:07:25.148Z,68.37
2023-03-31T15:09:42.002Z,69.52
2023-03-31T15:11:59.050Z,67.68
2023-03-31T15:14:17.258Z,68.04
2023-03-31T15:16:35.443Z,67.33
2023-03-31T15:18:54.035Z,68.32
2023-03-31T15:21:11.361Z,69.89
2023-03-31T15:23:29.379Z,69.56
2023-03-31T15:25:46.632Z,69.88
2023-03-31T15:28:03.666Z,74.00
2023-03-31T15:30:20.723Z,74.88
2023-03-31T15:32:38.138Z,75.76
2023-03-31T15:34:55.585Z,76.30
2023-03-31T15:37:13.176Z,77.47
2023-03-31T15:39:30.357Z,78.73
2023-03-31T15:41:47.325Z,77.93
2023-03-31T15:44:04.596Z,80.15
2023-03-31T15:46:21.643Z,80.89
2023-03-31T15:48:39.921Z,80.20
2023-03-31T15:50:57.219Z,81.98
2023-03-31T15:53:14.293Z,82.02
2023-03-31T15:55:31.530Z,79.93
2023-03-31T15:57:48.864Z,80.20
2023-03-31T16:00:05.968Z,80.92
2023-03-31T16:02:23.227Z,81.28
2023-03-31T16:04:40.737Z,82.10
2023-03-31T16:06:58.852Z,80.13
2023-03-31T16:09:16.688Z,77.47
2023-03-31T16:11:33.945Z,78.89
2023-03-31T16:13:51.195Z,77.16
2023-03-31T16:16:08.968Z,77.02
2023-03-31T16:18:26.048Z,77.31
2023-03-31T16:20:43.276Z,79.07
2023-03-31T16:23:01.257Z,78.36
2023-03-31T16:25:18.386Z,78.35
2023-03-31T16:27:36.236Z,77.46
2023-03-31T16:29:53.286Z,79.30
2023-03-31T16:32:11.537Z,80.76
2023-03-31T16:34:28.774Z,79.66
2023-03-31T16:36:45.802Z,81.18
2023-03-31T16:39:02.719Z,80.59
2023-03-31T16:41:19.613Z,80.40
2023-03-31T16:43:37.875Z,81.63
2023-03-31T16:45:54.930Z,81.88
2023-03-31T16:48:16.203Z,79.81
2023-03-31T16:50:34.257Z,81.30
2023-03-31T16:52:51.184Z,81.30
2023-03-31T16:55:08.214Z,80.74
2023-03-31T16:57:25.595Z,79.17
2023-03-31T16:59:42.658Z,80.59
2023-03-31T17:01:59.678Z,79.09
2023-03-31T17:04:16.924Z,78.56
2023-03-31T17:06:34.949Z,78.64
2023-03-31T17:08:51.979Z,77.21
2023-03-31T17:11:09.267Z,77.76
2023-03-31T17:13:26.334Z,77.56
2023-03-31T17:15:43.300Z,78.69
2023-03-31T17:18:00.351Z,77.93
2023-03-31T17:20:17.359Z,78.56
2023-03-31T17:22:35.631Z,80.45
2023-03-31T17:24:52.925Z,80.13
2023-03-31T17:27:09.766Z,80.63
2023-03-31T17:29:26.741Z,79.21
2023-03-31T17:31:44.047Z,79.96
2023-03-31T17:34:01.306Z,79.35
2023-03-31T17:36:18.620Z,79.69
2023-03-31T17:38:35.721Z,81.45
2023-03-31T17:40:52.650Z,81.90
2023-03-31T17:43:09.535Z,81.80
2023-03-31T17:45:26.575Z,81.39
2023-03-31T17:47:43.711Z,81.50
2023-03-31T17:50:00.826Z,81.91
2023-03-31T17:52:18.150Z,82.09
2023-03-31T17:54:35.064Z,82.53
2023-03-31T17:56:52.615Z,82.24
2023-03-31T17:59:09.650Z,82.02
2023-03-31T18:01:26.644Z,83.03
2023-03-31T18:03:43.495Z,83.85
2023-03-31T18:06:00.647Z,84.49
2023-03-31T18:08:17.761Z,85.15
2023-03-31T18:10:35.036Z,85.16
2023-03-31T18:12:53.168Z,84.99
2023-03-31T18:15:10.334Z,84.63
2023-03-31T18:17:29.175Z,84.99
2023-03-31T18:19:46.832Z,85.48
2023-03-31T18:22:03.809Z,85.94
2023-03-31T18:24:20.909Z,85.55
2023-03-31T18:26:37.999Z,85.17
2023-03-31T18:28:55.082Z,86.23
2023-03-31T18:31:12.215Z,86.68
2023-03-31T18:33:29.246Z,86.75
2023-03-31T18:35:46.477Z,87.44
2023-03-31T18:38:03.643Z,87.33
2023-03-31T18:40:20.872Z,86.45
2023-03-31T18:42:37.950Z,85.39
2023-03-31T18:44:55.972Z,85.64
2023-03-31T18:47:13.122Z,85.91
2023-03-31T18:49:30.446Z,84.94
2023-03-31T18:51:47.717Z,84.73
2023-03-31T18:54:04.607Z,84.83
2023-03-31T18:56:21.844Z,84.47
2023-03-31T18:58:38.858Z,85.29
2023-03-31T19:00:57.010Z,84.32
2023-03-31T19:03:14.485Z,84.48
2023-03-31T19:05:31.548Z,83.21
2023-03-31T19:07:48.690Z,83.71
2023-03-31T19:10:06.043Z,83.96
2023-03-31T19:12:23.362Z,84.05
2023-03-31T19:14:40.250Z,85.07
2023-03-31T19:16:57.444Z,82.81
2023-03-31T19:19:14.772Z,82.92
2023-03-31T19:21:31.726Z,82.83
2023-03-31T19:23:48.656Z,81.60
2023-03-31T19:26:05.868Z,82.01
2023-03-31T19:28:22.997Z,82.79
2023-03-31T19:30:40.024Z,82.58
2023-03-31T19:32:57.053Z,83.36
2023-03-31T19:35:14.081Z,83.11
2023-03-31T19:37:31.234Z,84.46
2023-03-31T19:39:48.228Z,84.71
2023-03-31T19:42:05.562Z,83.55
2023-03-31T19:44:22.500Z,83.10
2023-03-31T19:46:39.584Z,83.66
2023-03-31T19:48:57.616Z,83.49
2023-03-31T19:51:15.499Z,84.41
2023-03-31T19:53:32.393Z,83.93
2023-03-31T19:55:49.784Z,84.23
2023-03-31T19:58:07.105Z,84.82
2023-03-31T20:00:24.428Z,84.22
2023-03-31T20:02:42.728Z,84.74
2023-03-31T20:04:59.996Z,85.30
2023-03-31T20:07:17.046Z,86.17
2023-03-31T20:09:34.124Z,85.50
2023-03-31T20:11:51.213Z,86.26
2023-03-31T20:14:08.552Z,85.70
2023-03-31T20:16:25.916Z,86.03
2023-03-31T20:18:43.308Z,85.87
2023-03-31T20:21:00.234Z,86.08
2023-03-31T20:23:17.401Z,86.78
2023-03-31T20:25:34.699Z,85.87
2023-03-31T20:27:51.647Z,86.68
2023-03-31T20:30:09.713Z,85.59
2023-03-31T20:32:28.032Z,86.44
2023-03-31T20:34:45.308Z,86.91
2023-03-31T20:37:03.360Z,86.30
2023-03-31T20:39:20.253Z,87.83
2023-03-31T20:41:37.354Z,87.29
2023-03-31T20:43:54.499Z,86.40
2023-03-31T20:46:11.814Z,87.18
2023-03-31T20:48:28.851Z,86.87
2023-03-31T20:50:47.152Z,85.94
2023-03-31T20:53:04.181Z,86.31
2023-03-31T20:55:21.463Z,86.10
2023-03-31T20:57:38.401Z,85.83
2023-03-31T20:59:55.526Z,85.94
2023-03-31T21:02:12.579Z,86.00
2023-03-31T21:04:29.651Z,85.22
2023-03-31T21:06:47.894Z,85.12
2023-03-31T21:09:04.855Z,85.37
2023-03-31T21:11:21.695Z,85.65
2023-03-31T21:13:38.822Z,85.95
2023-03-31T21:15:56.868Z,84.71
2023-03-31T21:18:14.171Z,85.59
2023-03-31T21:20:32.745Z,85.45
2023-03-31T21:22:50.879Z,84.95
2023-03-31T21:25:08.864Z,84.62
2023-03-31T21:27:25.768Z,84.49
2023-03-31T21:29:42.663Z,84.98
2023-03-31T21:31:59.670Z,85.18
2023-03-31T21:34:17.014Z,84.45
2023-03-31T21:36:34.155Z,85.18
2023-03-31T21:38:51.209Z,84.31
2023-03-31T21:41:08.166Z,83.23
2023-03-31T21:43:25.484Z,82.90
2023-03-31T21:45:42.704Z,82.36
2023-03-31T21:47:59.877Z,83.30
2023-03-31T21:50:16.856Z,83.34
2023-03-31T21:52:34.387Z,83.56
2023-03-31T21:54:51.514Z,82.94
2023-03-31T21:57:08.616Z,83.79
2023-03-31T21:59:25.685Z,83.83
2023-03-31T22:01:43.778Z,82.38
2023-03-31T22:04:01.031Z,82.55
2023-03-31T22:06:18.368Z,81.53
2023-03-31T22:08:37.061Z,80.77
2023-03-31T22:10:54.009Z,81.95
2023-03-31T22:13:11.026Z,81.34
2023-03-31T22:15:28.403Z,81.00
2023-03-31T22:17:45.832Z,80.71
2023-03-31T22:20:03.151Z,81.44
2023-03-31T22:22:20.489Z,81.06
2023-03-31T22:24:37.846Z,81.22
2023-03-31T22:26:55.754Z,79.78
2023-03-31T22:29:12.766Z,80.80
2023-03-31T22:31:29.717Z,81.38
2023-03-31T22:33:46.770Z,81.05
2023-03-31T22:36:04.147Z,79.95
2023-03-31T22:38:21.252Z,80.54
2023-03-31T22:40:38.540Z,79.95
2023-03-31T22:42:55.547Z,80.61
2023-03-31T22:45:12.484Z,80.37
2023-03-31T22:47:29.894Z,80.03
2023-03-31T22:49:47.019Z,80.95
2023-03-31T22:52:04.340Z,80.23
2023-03-31T22:54:22.726Z,80.72
2023-03-31T22:56:39.664Z,80.16
2023-03-31T22:58:57.753Z,80.28
2023-03-31T23:01:15.145Z,80.07
2023-03-31T23:03:32.209Z,80.00
2023-03-31T23:05:50.244Z,78.61
2023-03-31T23:08:07.610Z,79.11
2023-03-31T23:10:24.687Z,79.51
2023-03-31T23:12:42.018Z,79.60
2023-03-31T23:14:59.320Z,79.19
2023-03-31T23:17:16.470Z,79.80
2023-03-31T23:19:34.423Z,78.71
2023-03-31T23:21:51.728Z,78.23
2023-03-31T23:24:08.629Z,79.19
2023-03-31T23:26:25.967Z,79.21
2023-03-31T23:28:42.942Z,79.67
2023-03-31T23:31:00.036Z,78.94
2023-03-31T23:33:17.408Z,78.53
2023-03-31T23:35:35.556Z,78.57
2023-03-31T23:37:52.575Z,78.31
2023-03-31T23:40:09.989Z,78.77
2023-03-31T23:42:27.319Z,78.88
2023-03-31T23:44:44.291Z,78.99
2023-03-31T23:47:01.640Z,80.28
2023-03-31T23:49:18.704Z,80.40
2023-03-31T23:51:35.881Z,79.36
2023-03-31T23:53:54.272Z,80.00
2023-03-31T23:56:11.268Z,80.40
2023-03-31T23:58:28.507Z,80.66
